Hustisford, Wisconsin
Current Conditions -  °F | °C
As of 1:15 AM on Friday 31 Oct 2014 (Local Time) from KUNU Reporting Station
Overcast Overcast  
Wind Chill: 33°   Ceiling: 2800
Heat Index: 41°   Visibility: 10mi
Dew Point: 32°   Wind: 13mph
Humidity: 70%   Direction: 300°WNW
Pressure: 30.05"   Gusts: 22mph
Location:  43.35°N, 88.6°W
Report Text: KUNU 310615Z AUTO 30011G19KT 10SM BKN028 BKN039 OVC065 05/00 A3005 RMK AO2 T00481002
Loading
Personal Weather Stations






























Interactive Weather Map
Tropical Storm Tracking
New forecast layout! Learn more

10-Day Weather Forecast

Advertisements
Track Severe Weather on mobile